Princeton/Rocky Hill (39N)
Princeton, NJ
Field Elevation: 128
Lat: 40°23.94N  Long: 74°39.54W
CTAF/Unicom Freq: 122.7250
   
     For Weather-by-Phone, call (609)-924-3901
Weather Advisories
11/26/2014 14:48 Z
Altimeter 30.13" Hg
Wind 060° @ 5 KT
Gusts --
Visibility 5 SM
Ceiling BKN005 OVC019
Temperature 2° C (36° F)
Dewpoint 1° C (34° F)
Relative Humidity 96%
Density Altitude --
Condensation Altitude --
Wind Chill -1° C (30° F)
  Wind and Runways
Indicated Runway = 10
History
 
 
More Info
All DigiWx sites map
 
NOAA Forecast
 
Airport IQ 5010
(OCNJ) Ocean City
(PN44) Upper Gwynedd Heliport
 
about DigiWx
 
FAA Disclaimer: The data displayed is for advisory purposes only and is not to be used for flight planning or operations. For official data, please call (609)-924-3901 to hear the current automated AWOS voice message.
  METAR 39N 261448Z AUTO 06005KT 5SM BKN005 OVC019 02/01 A3013